West Palm Beach, FL (33401)

5:59 PM EDT on August 31, 2015 (GMT -0400)
Palm Beach, FL | | Change Station
CLOSE
Current Station
Personal Weather Station
Location: Palm Beach, FL
Elevation: 8 ft
Nearby Weather Stations

Elev 8 ft 26.71 °N, 80.04 °W | Updated 1 second ago

Mostly Cloudy
Mostly Cloudy
86.5 °F
Feels Like 100 °F
N
2.0
Wind Variable Wind from SSW
Gusts 5.0 mph

Today
High -- | Low -- °F
--% Chance of Precip.
Yesterday
High -- | Low -- °F
Precip. -- in
6:59 AM 7:41 PM
Waning Gibbous, 93% visible
Pressure 30.03 in
Visibility 10.0 miles
Clouds Scattered Clouds 3000 ft
Scattered Clouds 7000 ft
Mostly Cloudy 25000 ft
Heat Index 100 °F
Dew Point 78 °F
Humidity 77%
Rainfall in
Snow Depth Not available.
UV 1 out of 12
Pollen .60 out of 12
Air Quality Not available.
Flu Activity Not available.
METAR KPBI 312153Z 17008KT 10SM SCT030 SCT070 BKN250 29/24 A3003 RMK AO2 SLP169 CB DSNT SW-W NW T02940239 $
Pressure 30.03 in
Visibility 10.0 miles
Clouds Scattered Clouds 3000 ft
Scattered Clouds 7000 ft
Mostly Cloudy 25000 ft
Heat Index 100 °F
Dew Point 78 °F
Humidity 77%
Rainfall in
Snow Depth Not available.
UV 1 out of 12
Pollen .60 out of 12
Air Quality Not available.
Flu Activity Not available.
METAR KPBI 312153Z 17008KT 10SM SCT030 SCT070 BKN250 29/24 A3003 RMK AO2 SLP169 CB DSNT SW-W NW T02940239 $

10-Day Weather Forecast

×

Almanac

Astronomy

Aug. 31, 2015 Rise Set
Actual Time
Civil Twilight
Nautical Twilight
Astronomical Twilight
Moon
Length of Visible Light
Length of Day
Tomorrow will be .
, % of the Moon is Illuminated

Today's Extremes

State Highs State Lows

Community

WunderPhotos

Upload Photos

1,851,377 photos uploaded!

WunderBlogs® & News

Nearby

Air Quality

  Air Quality AQ Index Pollutant
Not available.

Snow Depth

Station Depth Elevation

Earthquake Activity

City Distance Mag. Time & Date
Minimum magnitude displayed is 2.5.

Coastal Water Temperatures

Place Temperature

Stations

Nearby Weather Stations

Station Location Temp. Windchill Dew Point Humidity Wind Precip. Elev Updated Type